Impacts METAR Board INFO
IDs:

KCLE - Cleveland/Hopkins In, OH, US

Updated at: 0859 UTC 21 Jan 2018
Potential Impact None Slight Moderate High
Time20/20Z 20/21Z 20/22Z 20/23Z 21/00Z 21/01Z 21/02Z 21/03Z 21/04Z 21/05Z 21/06Z 21/07Z 21/08Z
VIS10 10 10 10 10 10 10 10 10 10 10 10 10
CIG-- -- -- -- -- -- -- 18 21 19 27 27 21
CoverSCTSCTSCTSCTFEWCLRCLROVCOVCOVCOVCOVCOVC
FltCatVFRVFRVFRVFRVFRVFRVFRMVFRMVFRMVFRMVFRMVFRMVFR
WX--------------------------
WDir2202202302302002002202202202002101900
WSpd14 10 9 8 5 6 4 6 4 5 3 4 0
WGst-- -- 17 -- -- -- -- -- -- -- -- -- --
Raw hourly METARs
KCLE 201951Z 22014KT 10SM SCT250 06/M02 A3001 RMK AO2 SLP166 T00611022
KCLE 202051Z 22010KT 10SM SCT250 06/M02 A3003 RMK AO2 SLP172 T00611022 53004
KCLE 202151Z 23009G17KT 10SM SCT250 05/M02 A3004 RMK AO2 SLP179 T00501017
KCLE 202251Z 23008KT 10SM SCT250 04/M02 A3006 RMK AO2 SLP184 T00441017
KCLE 202351Z 20005KT 10SM FEW250 04/M02 A3008 RMK AO2 SLP190 4/002 T00391017 10061 20033 52017
KCLE 210051Z 20006KT 10SM CLR 03/M02 A3008 RMK AO2 SLP192 T00331017
KCLE 210151Z 22004KT 10SM CLR 03/M02 A3009 RMK AO2 SLP195 T00281022
KCLE 210251Z 22006KT 10SM OVC018 04/M01 A3009 RMK AO2 SLP195 T00391011 51005
KCLE 210351Z 22004KT 10SM OVC021 04/M01 A3011 RMK AO2 SLP200 T00441006
KCLE 210451Z 20005KT 10SM BKN019 OVC026 04/01 A3010 RMK AO2 SLP199 T00440006 400610022
KCLE 210551Z 21003KT 10SM FEW017 OVC027 04/01 A3010 RMK AO2 SLP197 4/002 T00440011 10050 20028 50003
KCLE 210651Z 19004KT 10SM OVC027 04/01 A3011 RMK AO2 SLP200 T00440011
KCLE 210751Z 00000KT 10SM OVC021 04/01 A3012 RMK AO2 SLP204 T00390011